MAPA DE AEROPUERTO

INFORMACIÓN METAR y TAF


Deprecated: The each() function is deprecated. This message will be suppressed on further calls in /home/customer/www/clickair-va.com/public_html/VAM/vam/helpers/get_metar.php on line 20
METAR FOR LEMD
ADDS - METARS form results

(0834 UTC 07 July 2022)
Data provider http://aviationweather.gov/metar/data/
 
METAR text: LEMD 070800Z 03010KT CAVOK 22/09 Q1026 NOSIG
Conditions at: LEMD (MADRID/BARAJAS , ES) observed 0800 UTC 07 July 2022
Temperature: 22.0°C (72°F)
Dewpoint: 9.0°C (48°F) [RH = 43%]
Pressure (altimeter): 30.30 inches Hg (1026.0 mb)
Winds: from the NNE (30 degrees) at 12 MPH (10 knots; 5.1 m/s)
Visibility: 6 or more miles (10+ km)
Ceiling: ceiling and visibility are OK
Clouds: unknown
Weather: no significant weather observed at this time

Forecast for: LEMD (MADRID/BARAJAS , ES)
Text: TAF LEMD 070500Z 0706/0812 04008KT CAVOK TX34/0715Z TN18/0706Z
Forecast period: 0600 UTC 07 July 2022 to 1200 UTC 08 July 2022
Forecast type: FROM: standard forecast or significant change
Winds: from the NE (40 degrees) at 9 MPH (8 knots; 4.1 m/s)
Visibility: 6 or more miles (10+ km)
Ceiling: unknown
Clouds: missing
Weather: no significant weather forecast for this period